Ds Blue Wave — A8YK2 — position and weather

sailwx.info

Track history (hours):
 
Tides and Currents Weather Stations Pressure Air Temp Water Temp Dewpoint Dewpoint Depression Visibility Wind Speed Wind Dir Waves Ship Positions

Ds Blue Wave

Last reported at 2016-Dec-09 07:27 UTC. Time now 2016-Dec-10 10:53 UTC.
Position N 31°20' E 121°40'.

Length 129 m; draft 7.4 m.

Type: Cargo ship. MMSI: 636092200.

Date/timePositionNaut miles runAvg speedWind from/ knotsBaromVisibWave heightAir tempDewpointWater temp
2016-Dec-09 07:27N 31°20' E 121°40'5 2.2
2016-Dec-09 05:13N 31°22' E 121°35'0 0.0
2016-Dec-09 04:31N 31°22' E 121°35'0 0.0
2016-Dec-09 03:31N 31°22' E 121°35'0 0.0
2016-Dec-09 02:13N 31°22' E 121°35'0 0.0
2016-Dec-09 01:31N 31°22' E 121°35'0 0.0
2016-Dec-08 23:31N 31°22' E 121°35'0 0.0
2016-Dec-08 19:13N 31°22' E 121°35'0 0.0
2016-Dec-08 18:19N 31°22' E 121°35'0 0.0
2016-Dec-08 17:25N 31°22' E 121°35'0 0.0
2016-Dec-08 16:31N 31°22' E 121°35'  
2016-Dec-06 08:21N 34°37' E 135°01'1113.4
2016-Dec-06 07:33N 34°37' E 135°14'4 2.9
2016-Dec-06 06:08N 34°41' E 135°15'0 0.0
2016-Dec-06 05:32N 34°41' E 135°15'0 0.0
2016-Dec-06 04:32N 34°41' E 135°15'0 0.0
2016-Dec-06 03:32N 34°41' E 135°15'0 0.0
2016-Dec-06 02:32N 34°41' E 135°15'0 0.0
2016-Dec-06 01:08N 34°41' E 135°15'0 0.0
2016-Dec-06 00:32N 34°41' E 135°15'1 0.8
2016-Dec-05 23:33N 34°40' E 135°15'3 2.5
2016-Dec-05 22:26N 34°37' E 135°14'0 0.1
2016-Dec-05 21:32N 34°37' E 135°14'0 0.0
2016-Dec-05 20:32N 34°37' E 135°14'0 0.0
2016-Dec-05 19:32N 34°37' E 135°14'0 0.0
2016-Dec-05 18:20N 34°37' E 135°14'0 0.1
2016-Dec-05 17:32N 34°37' E 135°14'0 0.1
2016-Dec-05 16:32N 34°37' E 135°14'0 0.1
2016-Dec-05 15:32N 34°37' E 135°14'0 0.0
2016-Dec-05 14:32N 34°37' E 135°14'0 0.1
2016-Dec-05 13:32N 34°37' E 135°14'0 0.0
2016-Dec-05 12:32N 34°37' E 135°14'0 0.1
2016-Dec-05 11:32N 34°37' E 135°14'0 0.1
2016-Dec-05 10:32N 34°37' E 135°14'0 0.0
2016-Dec-05 09:32N 34°37' E 135°14'0 0.0
2016-Dec-05 08:32N 34°37' E 135°14'7 7.1
2016-Dec-05 07:33N 34°38' E 135°23'1 0.9
2016-Dec-05 06:23N 34°39' E 135°24'0 0.0
2016-Dec-05 01:17N 34°39' E 135°24'0 0.0
2016-Dec-05 00:29N 34°39' E 135°24'0 0.0
2016-Dec-04 22:13N 34°39' E 135°24'4 5.0
2016-Dec-04 21:30N 34°36' E 135°21'9 9.2
2016-Dec-04 20:33N 34°35' E 135°10'  
2016-Dec-02 10:22N 31°20' E 121°41'6 6.6
2016-Dec-02 09:32N 31°23' E 121°35'0 0.0
2016-Dec-02 06:20N 31°23' E 121°35'0 0.0
2016-Dec-02 05:08N 31°23' E 121°35'0 0.0
2016-Dec-02 04:14N 31°23' E 121°35'0 0.0
2016-Dec-02 02:32N 31°23' E 121°35'0 0.0
2016-Dec-02 01:26N 31°23' E 121°35'0 0.0
2016-Dec-02 00:26N 31°23' E 121°35'0 0.0
2016-Dec-01 23:32N 31°23' E 121°35'0 0.0
2016-Dec-01 22:32N 31°23' E 121°35'0 0.0
2016-Dec-01 20:20N 31°23' E 121°35'0 0.6
2016-Dec-01 19:32N 31°23' E 121°35'4 3.4
2016-Dec-01 18:29N 31°21' E 121°39'  
Track history (hours):
 
Tides and Currents Weather Stations Pressure Air Temp Water Temp Dewpoint Dewpoint Depression Visibility Wind Speed Wind Dir Waves Ship Positions

Ds Blue Wave

Last reported at 2016-Dec-09 07:27 UTC. Time now 2016-Dec-10 10:53 UTC.
Position N 31°20' E 121°40'.

Length 129 m; draft 7.4 m.

Type: Cargo ship. MMSI: 636092200.

Date/timePositionNaut miles runAvg speedWind from/ knotsBaromVisibWave heightAir tempDewpointWater temp
2016-Dec-09 07:27N 31°20' E 121°40'5 2.2
2016-Dec-09 05:13N 31°22' E 121°35'0 0.0
2016-Dec-09 04:31N 31°22' E 121°35'0 0.0
2016-Dec-09 03:31N 31°22' E 121°35'0 0.0
2016-Dec-09 02:13N 31°22' E 121°35'0 0.0
2016-Dec-09 01:31N 31°22' E 121°35'0 0.0
2016-Dec-08 23:31N 31°22' E 121°35'0 0.0
2016-Dec-08 19:13N 31°22' E 121°35'0 0.0
2016-Dec-08 18:19N 31°22' E 121°35'0 0.0
2016-Dec-08 17:25N 31°22' E 121°35'0 0.0
2016-Dec-08 16:31N 31°22' E 121°35'  
2016-Dec-06 08:21N 34°37' E 135°01'1113.4
2016-Dec-06 07:33N 34°37' E 135°14'4 2.9
2016-Dec-06 06:08N 34°41' E 135°15'0 0.0
2016-Dec-06 05:32N 34°41' E 135°15'0 0.0
2016-Dec-06 04:32N 34°41' E 135°15'0 0.0
2016-Dec-06 03:32N 34°41' E 135°15'0 0.0
2016-Dec-06 02:32N 34°41' E 135°15'0 0.0
2016-Dec-06 01:08N 34°41' E 135°15'0 0.0
2016-Dec-06 00:32N 34°41' E 135°15'1 0.8
2016-Dec-05 23:33N 34°40' E 135°15'3 2.5
2016-Dec-05 22:26N 34°37' E 135°14'0 0.1
2016-Dec-05 21:32N 34°37' E 135°14'0 0.0
2016-Dec-05 20:32N 34°37' E 135°14'0 0.0
2016-Dec-05 19:32N 34°37' E 135°14'0 0.0
2016-Dec-05 18:20N 34°37' E 135°14'0 0.1
2016-Dec-05 17:32N 34°37' E 135°14'0 0.1
2016-Dec-05 16:32N 34°37' E 135°14'0 0.1
2016-Dec-05 15:32N 34°37' E 135°14'0 0.0
2016-Dec-05 14:32N 34°37' E 135°14'0 0.1
2016-Dec-05 13:32N 34°37' E 135°14'0 0.0
2016-Dec-05 12:32N 34°37' E 135°14'0 0.1
2016-Dec-05 11:32N 34°37' E 135°14'0 0.1
2016-Dec-05 10:32N 34°37' E 135°14'0 0.0
2016-Dec-05 09:32N 34°37' E 135°14'0 0.0
2016-Dec-05 08:32N 34°37' E 135°14'7 7.1
2016-Dec-05 07:33N 34°38' E 135°23'1 0.9
2016-Dec-05 06:23N 34°39' E 135°24'0 0.0
2016-Dec-05 01:17N 34°39' E 135°24'0 0.0
2016-Dec-05 00:29N 34°39' E 135°24'0 0.0
2016-Dec-04 22:13N 34°39' E 135°24'4 5.0
2016-Dec-04 21:30N 34°36' E 135°21'9 9.2
2016-Dec-04 20:33N 34°35' E 135°10'  
2016-Dec-02 10:22N 31°20' E 121°41'6 6.6
2016-Dec-02 09:32N 31°23' E 121°35'0 0.0
2016-Dec-02 06:20N 31°23' E 121°35'0 0.0
2016-Dec-02 05:08N 31°23' E 121°35'0 0.0
2016-Dec-02 04:14N 31°23' E 121°35'0 0.0
2016-Dec-02 02:32N 31°23' E 121°35'0 0.0
2016-Dec-02 01:26N 31°23' E 121°35'0 0.0
2016-Dec-02 00:26N 31°23' E 121°35'0 0.0
2016-Dec-01 23:32N 31°23' E 121°35'0 0.0
2016-Dec-01 22:32N 31°23' E 121°35'0 0.0
2016-Dec-01 20:20N 31°23' E 121°35'0 0.6
2016-Dec-01 19:32N 31°23' E 121°35'4 3.4
2016-Dec-01 18:29N 31°21' E 121°39'  

Dump ship's entire track history